createdAt,value
2023-03-02T00:01:22.077Z,16.48
2023-03-02T00:03:49.641Z,17.50
2023-03-02T00:06:17.013Z,19.38
2023-03-02T00:08:44.223Z,17.48
2023-03-02T00:11:11.638Z,18.02
2023-03-02T00:13:39.192Z,16.85
2023-03-02T00:16:06.496Z,18.55
2023-03-02T00:18:33.572Z,15.05
2023-03-02T00:21:00.589Z,14.20
2023-03-02T00:23:27.676Z,16.50
2023-03-02T00:25:54.684Z,16.60
2023-03-02T00:28:21.683Z,15.73
2023-03-02T00:30:49.022Z,17.48
2023-03-02T00:33:16.131Z,16.88
2023-03-02T00:35:43.165Z,15.20
2023-03-02T00:38:10.250Z,14.00
2023-03-02T00:40:37.461Z,16.55
2023-03-02T00:43:04.674Z,17.15
2023-03-02T00:45:31.705Z,19.55
2023-03-02T00:47:58.814Z,17.00
2023-03-02T00:50:25.942Z,17.42
2023-03-02T00:52:52.991Z,16.13
2023-03-02T00:55:20.033Z,19.02
2023-03-02T00:57:54.908Z,18.60
2023-03-02T01:00:22.933Z,21.55
2023-03-02T01:02:50.600Z,18.98
2023-03-02T01:05:18.036Z,20.63
2023-03-02T01:07:45.212Z,20.58
2023-03-02T01:10:12.948Z,21.08
2023-03-02T01:12:39.959Z,26.98
2023-03-02T01:15:07.612Z,21.70
2023-03-02T01:17:34.702Z,20.67
2023-03-02T01:20:01.703Z,18.40
2023-03-02T01:22:28.833Z,19.40
2023-03-02T01:24:55.934Z,20.50
2023-03-02T01:27:22.992Z,18.58
2023-03-02T01:29:50.677Z,20.85
2023-03-02T01:32:18.078Z,19.58
2023-03-02T01:34:45.231Z,20.20
2023-03-02T01:37:12.244Z,22.42
2023-03-02T01:39:39.405Z,16.85
2023-03-02T01:42:06.465Z,20.00
2023-03-02T01:44:34.593Z,15.77
2023-03-02T01:47:02.350Z,20.02
2023-03-02T01:49:29.408Z,15.82
2023-03-02T01:51:56.491Z,18.40
2023-03-02T01:54:24.053Z,18.70
2023-03-02T01:56:53.400Z,18.92
2023-03-02T01:59:22.170Z,17.55
2023-03-02T02:01:52.033Z,19.80
2023-03-02T02:04:19.585Z,15.90
2023-03-02T02:06:54.502Z,16.08
2023-03-02T02:09:23.264Z,17.70
2023-03-02T02:11:50.322Z,15.85
2023-03-02T02:14:17.593Z,17.20
2023-03-02T02:16:44.817Z,15.55
2023-03-02T02:19:15.658Z,18.27
2023-03-02T02:21:42.667Z,16.33
2023-03-02T02:24:12.609Z,16.50
2023-03-02T02:26:50.650Z,16.40
2023-03-02T02:29:22.657Z,13.30
2023-03-02T02:31:53.904Z,14.63
2023-03-02T02:34:24.271Z,14.07
2023-03-02T02:36:53.340Z,20.23
2023-03-02T02:39:23.035Z,15.50
2023-03-02T02:41:51.800Z,15.13
2023-03-02T02:44:19.625Z,14.93
2023-03-02T02:46:46.934Z,16.02
2023-03-02T02:49:40.444Z,15.95
2023-03-02T02:52:07.659Z,19.55
2023-03-02T02:54:35.906Z,16.85
2023-03-02T02:57:04.193Z,20.13
2023-03-02T02:59:36.132Z,18.35
2023-03-02T03:02:03.306Z,16.05
2023-03-02T03:04:31.352Z,15.85
2023-03-02T03:06:59.934Z,18.58
2023-03-02T03:09:27.602Z,15.80
2023-03-02T03:11:59.311Z,20.20
2023-03-02T03:14:31.220Z,14.15
2023-03-02T03:16:58.266Z,16.60
2023-03-02T03:19:26.992Z,16.95
2023-03-02T03:21:55.446Z,17.55
2023-03-02T03:24:22.845Z,17.83
2023-03-02T03:26:50.240Z,16.42
2023-03-02T03:29:18.304Z,15.18
2023-03-02T03:31:45.513Z,19.67
2023-03-02T03:34:12.567Z,14.00
2023-03-02T03:36:39.567Z,19.38
2023-03-02T03:39:07.117Z,15.30
2023-03-02T03:41:34.187Z,17.63
2023-03-02T03:44:01.567Z,16.60
2023-03-02T03:46:29.090Z,21.00
2023-03-02T03:48:56.235Z,16.95
2023-03-02T03:51:23.734Z,15.00
2023-03-02T03:53:59.716Z,18.83
2023-03-02T03:56:28.042Z,18.73
2023-03-02T03:59:06.109Z,16.92
2023-03-02T04:01:47.431Z,15.38
2023-03-02T04:04:25.271Z,17.15
2023-03-02T04:06:52.998Z,16.10
2023-03-02T04:09:20.019Z,15.20
2023-03-02T04:11:49.160Z,16.02
2023-03-02T04:14:16.963Z,17.98
2023-03-02T04:16:44.193Z,15.20
2023-03-02T04:19:12.070Z,19.50
2023-03-02T04:21:40.246Z,17.20
2023-03-02T04:24:08.165Z,16.08
2023-03-02T04:26:35.575Z,15.88
2023-03-02T04:29:02.942Z,15.70
2023-03-02T04:31:32.946Z,15.98
2023-03-02T04:34:00.100Z,14.45
2023-03-02T04:36:27.185Z,15.77
2023-03-02T04:38:54.423Z,15.55
2023-03-02T04:41:22.019Z,16.25
2023-03-02T04:43:49.415Z,18.10
2023-03-02T04:46:18.488Z,19.27
2023-03-02T04:48:45.524Z,19.38
2023-03-02T04:51:24.123Z,18.33
2023-03-02T04:54:01.884Z,14.95
2023-03-02T04:56:28.912Z,18.45
2023-03-02T04:58:56.392Z,17.27
2023-03-02T05:01:23.729Z,15.82
2023-03-02T05:03:51.906Z,20.13
2023-03-02T05:06:19.393Z,18.73
2023-03-02T05:08:46.517Z,18.27
2023-03-02T05:11:22.275Z,14.27
2023-03-02T05:13:57.232Z,15.70
2023-03-02T05:16:24.905Z,18.52
2023-03-02T05:18:52.054Z,21.77
2023-03-02T05:21:19.448Z,18.52
2023-03-02T05:23:47.827Z,16.05
2023-03-02T05:26:15.282Z,18.98
2023-03-02T05:28:42.472Z,15.15
2023-03-02T05:31:10.261Z,15.93
2023-03-02T05:33:37.322Z,17.58
2023-03-02T05:36:04.425Z,19.08
2023-03-02T05:38:31.718Z,16.67
2023-03-02T05:40:58.846Z,24.40
2023-03-02T05:43:25.947Z,20.70
2023-03-02T05:45:53.016Z,16.80
2023-03-02T05:48:20.060Z,17.05
2023-03-02T05:50:47.136Z,22.23
2023-03-02T05:53:14.200Z,17.30
2023-03-02T05:55:41.197Z,20.58
2023-03-02T05:58:11.807Z,16.77
2023-03-02T06:00:38.827Z,19.50
2023-03-02T06:03:05.988Z,21.38
2023-03-02T06:05:33.115Z,17.30
2023-03-02T06:08:00.189Z,16.77
2023-03-02T06:10:27.421Z,18.42
2023-03-02T06:12:54.578Z,19.13
2023-03-02T06:15:21.616Z,24.30
2023-03-02T06:17:48.979Z,18.08
2023-03-02T06:20:16.553Z,19.50
2023-03-02T06:22:45.371Z,18.95
2023-03-02T06:25:13.548Z,21.77
2023-03-02T06:27:41.156Z,20.80
2023-03-02T06:30:10.965Z,19.42
2023-03-02T06:32:38.263Z,20.70
2023-03-02T06:35:06.769Z,17.17
2023-03-02T06:37:34.101Z,18.05
2023-03-02T06:40:01.283Z,16.55
2023-03-02T06:42:28.719Z,17.88
2023-03-02T06:44:55.790Z,17.98
2023-03-02T06:47:23.454Z,17.83
2023-03-02T06:49:50.486Z,16.05
2023-03-02T06:52:18.057Z,18.75
2023-03-02T06:54:45.113Z,20.20
2023-03-02T06:57:12.172Z,19.02
2023-03-02T06:59:39.193Z,21.30
2023-03-02T07:02:06.298Z,18.48
2023-03-02T07:04:33.370Z,21.33
2023-03-02T07:07:00.451Z,16.83
2023-03-02T07:09:27.612Z,19.33
2023-03-02T07:11:54.619Z,27.08
2023-03-02T07:14:21.683Z,23.50
2023-03-02T07:16:48.735Z,19.55
2023-03-02T07:19:15.862Z,21.52
2023-03-02T07:21:42.880Z,21.30
2023-03-02T07:24:09.976Z,24.48
2023-03-02T07:26:37.003Z,26.67
2023-03-02T07:29:04.052Z,26.35
2023-03-02T07:31:31.484Z,23.15
2023-03-02T07:33:58.783Z,27.98
2023-03-02T07:36:26.352Z,48.13
2023-03-02T07:38:54.756Z,49.90
2023-03-02T07:41:22.753Z,47.15
2023-03-02T07:43:49.862Z,97.68
2023-03-02T07:46:17.129Z,55.83
2023-03-02T07:48:45.290Z,43.13
2023-03-02T07:51:12.339Z,23.17
2023-03-02T07:53:39.411Z,34.35
2023-03-02T07:56:07.853Z,24.80
2023-03-02T07:58:35.424Z,27.30
2023-03-02T08:01:02.574Z,25.90
2023-03-02T08:03:29.672Z,19.00
2023-03-02T08:05:56.724Z,21.93
2023-03-02T08:08:23.785Z,24.97
2023-03-02T08:10:50.904Z,24.17
2023-03-02T08:13:17.938Z,20.33
2023-03-02T08:15:45.036Z,20.97
2023-03-02T08:18:12.095Z,32.70
2023-03-02T08:20:39.202Z,19.97
2023-03-02T08:23:06.249Z,22.73
2023-03-02T08:25:33.424Z,22.33
2023-03-02T08:28:00.437Z,26.27
2023-03-02T08:30:27.591Z,27.70
2023-03-02T08:32:54.640Z,33.47
2023-03-02T08:35:22.134Z,30.10
2023-03-02T08:37:49.236Z,31.47
2023-03-02T08:40:17.437Z,37.73
2023-03-02T08:42:44.555Z,46.87
2023-03-02T08:45:11.721Z,24.50
2023-03-02T08:47:41.992Z,30.87
2023-03-02T08:50:09.322Z,31.40
2023-03-02T08:52:36.348Z,35.97
2023-03-02T08:55:04.272Z,34.50
2023-03-02T08:57:31.507Z,26.27
2023-03-02T08:59:58.536Z,27.20
2023-03-02T09:02:25.559Z,28.10
2023-03-02T09:04:52.750Z,25.93
2023-03-02T09:07:19.892Z,24.73
2023-03-02T09:09:46.968Z,25.53
2023-03-02T09:12:13.993Z,23.90
2023-03-02T09:14:41.115Z,26.03
2023-03-02T09:17:08.155Z,28.13
2023-03-02T09:19:43.270Z,25.07
2023-03-02T09:22:11.516Z,23.27
2023-03-02T09:24:38.611Z,22.97
2023-03-02T09:27:05.678Z,30.27
2023-03-02T09:29:32.669Z,21.60
2023-03-02T09:32:00.767Z,24.67
2023-03-02T09:34:27.822Z,23.40
2023-03-02T09:36:54.826Z,27.30
2023-03-02T09:39:21.867Z,25.30
2023-03-02T09:42:01.960Z,22.40
2023-03-02T09:44:44.374Z,23.73
2023-03-02T09:47:33.421Z,25.70
2023-03-02T09:50:11.078Z,24.10
2023-03-02T09:52:44.809Z,22.60
2023-03-02T09:55:15.054Z,22.33
2023-03-02T09:57:43.314Z,21.40
2023-03-02T10:00:22.964Z,29.03
2023-03-02T10:03:14.953Z,23.87
2023-03-02T10:05:45.892Z,23.30
2023-03-02T10:08:15.045Z,22.30
2023-03-02T10:11:06.616Z,20.70
2023-03-02T10:13:44.259Z,25.53
2023-03-02T10:16:38.529Z,21.47
2023-03-02T10:19:09.422Z,20.13
2023-03-02T10:21:40.947Z,20.57
2023-03-02T10:24:24.686Z,21.10
2023-03-02T10:26:53.887Z,23.73
2023-03-02T10:29:30.168Z,23.73
2023-03-02T10:32:04.849Z,21.17
2023-03-02T10:34:32.071Z,25.90
2023-03-02T10:36:59.152Z,23.83
2023-03-02T10:39:26.206Z,24.00
2023-03-02T10:42:13.574Z,23.73
2023-03-02T10:44:42.765Z,27.70
2023-03-02T10:47:20.326Z,19.80
2023-03-02T10:49:48.097Z,23.80
2023-03-02T10:52:25.444Z,23.40
2023-03-02T10:55:02.854Z,21.70
2023-03-02T10:57:30.716Z,21.80
2023-03-02T11:00:06.080Z,24.87
2023-03-02T11:02:34.742Z,20.67
2023-03-02T11:05:20.730Z,20.10
2023-03-02T11:08:02.020Z,21.70
2023-03-02T11:10:34.241Z,21.10
2023-03-02T11:13:02.012Z,21.13
2023-03-02T11:15:35.303Z,26.07
2023-03-02T11:18:02.396Z,22.20
2023-03-02T11:20:38.550Z,23.30
2023-03-02T11:23:11.403Z,23.67
2023-03-02T11:25:40.402Z,23.93
2023-03-02T11:28:13.346Z,22.30
2023-03-02T11:30:44.017Z,21.30
2023-03-02T11:33:18.064Z,23.70
2023-03-02T11:35:45.152Z,23.40
2023-03-02T11:38:18.440Z,22.87
2023-03-02T11:41:00.532Z,24.07
2023-03-02T11:43:27.681Z,20.40
2023-03-02T11:45:58.870Z,20.00
2023-03-02T11:48:38.711Z,22.63
2023-03-02T11:51:07.140Z,23.60
2023-03-02T11:53:39.994Z,24.87
2023-03-02T11:56:07.318Z,21.20
2023-03-02T11:58:34.851Z,23.73
2023-03-02T12:01:02.584Z,26.00
2023-03-02T12:03:32.639Z,20.87
2023-03-02T12:06:02.170Z,22.77
2023-03-02T12:08:34.562Z,25.50
2023-03-02T12:11:09.877Z,18.93
2023-03-02T12:13:40.723Z,24.10
2023-03-02T12:16:21.479Z,21.80
2023-03-02T12:18:49.511Z,21.20
2023-03-02T12:21:17.942Z,21.37
2023-03-02T12:23:48.121Z,20.50
2023-03-02T12:26:21.262Z,22.23
2023-03-02T12:28:59.601Z,22.87
2023-03-02T12:31:27.161Z,22.73
2023-03-02T12:33:54.473Z,28.90
2023-03-02T12:36:33.083Z,19.50
2023-03-02T12:39:10.761Z,19.27
2023-03-02T12:41:41.392Z,29.13
2023-03-02T12:44:27.726Z,19.83
2023-03-02T12:46:56.253Z,20.50
2023-03-02T12:49:45.507Z,20.33
2023-03-02T12:52:24.139Z,19.97
2023-03-02T12:54:59.687Z,26.70
2023-03-02T12:57:27.116Z,21.20
2023-03-02T12:59:55.135Z,27.93
2023-03-02T13:02:23.734Z,28.60
2023-03-02T13:04:58.115Z,21.80
2023-03-02T13:07:26.619Z,22.70
2023-03-02T13:09:56.866Z,21.10
2023-03-02T13:12:24.901Z,25.53
2023-03-02T13:14:54.834Z,20.53
2023-03-02T13:17:30.884Z,23.57
2023-03-02T13:20:02.177Z,17.50
2023-03-02T13:22:29.662Z,24.33
2023-03-02T13:25:00.298Z,20.57
2023-03-02T13:27:27.740Z,26.20
2023-03-02T13:29:58.133Z,24.87
2023-03-02T13:32:25.383Z,18.90
2023-03-02T13:34:56.820Z,20.43
2023-03-02T13:37:30.396Z,23.00
2023-03-02T13:40:01.794Z,19.83
2023-03-02T13:42:30.547Z,19.27
2023-03-02T13:44:57.618Z,24.87
2023-03-02T13:47:25.158Z,22.57
2023-03-02T13:49:52.279Z,24.43
2023-03-02T13:52:45.626Z,27.13
2023-03-02T13:55:16.607Z,18.50
2023-03-02T13:57:45.863Z,18.30
2023-03-02T14:00:31.446Z,19.53
2023-03-02T14:02:58.564Z,21.70
2023-03-02T14:05:32.831Z,19.53
2023-03-02T14:08:00.268Z,17.63
2023-03-02T14:10:27.696Z,19.03
2023-03-02T14:12:57.636Z,17.17
2023-03-02T14:15:25.347Z,16.33
2023-03-02T14:17:52.385Z,17.07
2023-03-02T14:20:20.587Z,15.60
2023-03-02T14:22:48.706Z,19.67
2023-03-02T14:25:15.908Z,17.17
2023-03-02T14:27:43.367Z,15.30
2023-03-02T14:30:21.119Z,19.67
2023-03-02T14:32:48.256Z,17.40
2023-03-02T14:35:16.565Z,16.60
2023-03-02T14:37:44.994Z,18.57
2023-03-02T14:40:17.096Z,18.10
2023-03-02T14:42:44.333Z,17.83
2023-03-02T14:45:11.604Z,18.27
2023-03-02T14:47:38.701Z,21.33
2023-03-02T14:50:05.928Z,17.03
2023-03-02T14:52:36.321Z,15.17
2023-03-02T14:55:05.551Z,14.93
2023-03-02T14:57:34.008Z,15.33
2023-03-02T15:00:01.141Z,15.47
2023-03-02T15:02:28.447Z,23.37
2023-03-02T15:04:56.940Z,16.03
2023-03-02T15:07:25.200Z,20.37
2023-03-02T15:09:52.232Z,21.97
2023-03-02T15:12:19.306Z,17.03
2023-03-02T15:14:46.324Z,14.70
2023-03-02T15:17:13.350Z,15.40
2023-03-02T15:19:40.399Z,15.80
2023-03-02T15:22:07.516Z,14.00
2023-03-02T15:24:34.547Z,14.13
2023-03-02T15:27:01.978Z,13.93
2023-03-02T15:29:29.010Z,15.40
2023-03-02T15:31:56.129Z,18.60
2023-03-02T15:34:23.208Z,16.93
2023-03-02T15:36:50.230Z,18.40
2023-03-02T15:39:17.245Z,16.93
2023-03-02T15:41:44.536Z,15.10
2023-03-02T15:44:22.846Z,14.77
2023-03-02T15:46:59.712Z,14.90
2023-03-02T15:49:28.458Z,14.67
2023-03-02T15:51:59.850Z,17.03
2023-03-02T15:54:27.379Z,14.97
2023-03-02T15:56:54.492Z,15.47
2023-03-02T15:59:22.531Z,16.03
2023-03-02T16:01:49.652Z,15.50
2023-03-02T16:04:16.824Z,15.60
2023-03-02T16:06:43.986Z,16.27
2023-03-02T16:09:11.074Z,16.30
2023-03-02T16:11:38.094Z,15.80
2023-03-02T16:14:05.207Z,13.70
2023-03-02T16:16:32.287Z,13.40
2023-03-02T16:18:59.825Z,14.97
2023-03-02T16:21:28.327Z,14.17
2023-03-02T16:24:02.783Z,13.60
2023-03-02T16:26:29.840Z,14.80
2023-03-02T16:28:56.860Z,14.60
2023-03-02T16:31:27.023Z,14.47
2023-03-02T16:33:58.001Z,15.90
2023-03-02T16:36:26.007Z,19.10
2023-03-02T16:38:53.104Z,15.87
2023-03-02T16:41:21.404Z,13.63
2023-03-02T16:43:49.792Z,15.00
2023-03-02T16:46:17.702Z,13.50
2023-03-02T16:48:45.446Z,12.70
2023-03-02T16:51:13.745Z,13.63
2023-03-02T16:53:41.052Z,15.00
2023-03-02T16:56:09.015Z,12.07
2023-03-02T16:58:38.234Z,13.87
2023-03-02T17:01:06.432Z,11.87
2023-03-02T17:03:33.512Z,12.33
2023-03-02T17:06:01.471Z,14.63
2023-03-02T17:08:28.599Z,12.93
2023-03-02T17:10:55.664Z,11.50
2023-03-02T17:13:22.723Z,11.40
2023-03-02T17:15:49.809Z,10.80
2023-03-02T17:18:17.200Z,11.43
2023-03-02T17:20:44.689Z,11.35
2023-03-02T17:23:12.820Z,11.95
2023-03-02T17:25:40.117Z,11.77
2023-03-02T17:28:07.207Z,13.93
2023-03-02T17:30:34.255Z,12.25
2023-03-02T17:33:01.295Z,10.30
2023-03-02T17:35:28.406Z,12.80
2023-03-02T17:37:56.595Z,12.48
2023-03-02T17:40:23.722Z,12.10
2023-03-02T17:42:54.011Z,12.45
2023-03-02T17:45:23.782Z,11.52
2023-03-02T17:47:51.378Z,13.80
2023-03-02T17:50:18.503Z,11.60
2023-03-02T17:52:45.530Z,15.48
2023-03-02T17:55:13.676Z,12.02
2023-03-02T17:57:40.787Z,12.95
2023-03-02T18:00:11.126Z,17.52
2023-03-02T18:02:38.137Z,15.45
2023-03-02T18:05:05.328Z,17.98
2023-03-02T18:07:32.352Z,14.38
2023-03-02T18:09:59.433Z,12.57
2023-03-02T18:12:26.470Z,10.75
2023-03-02T18:14:53.485Z,14.93
2023-03-02T18:17:20.714Z,14.57
2023-03-02T18:19:48.050Z,15.88
2023-03-02T18:22:15.306Z,13.25
2023-03-02T18:24:42.327Z,12.10
2023-03-02T18:27:09.340Z,11.75
2023-03-02T18:29:36.378Z,16.77
2023-03-02T18:32:03.444Z,11.52
2023-03-02T18:34:31.500Z,14.63
2023-03-02T18:36:58.562Z,16.92
2023-03-02T18:39:25.708Z,13.90
2023-03-02T18:41:52.952Z,12.30
2023-03-02T18:44:20.125Z,15.50
2023-03-02T18:46:47.262Z,13.65
2023-03-02T18:49:14.334Z,15.05
2023-03-02T18:51:41.410Z,16.50
2023-03-02T18:54:08.473Z,15.55
2023-03-02T18:56:35.609Z,19.48
2023-03-02T18:59:05.609Z,16.00
2023-03-02T19:01:32.722Z,16.13
2023-03-02T19:04:02.126Z,14.77
2023-03-02T19:06:30.339Z,15.73
2023-03-02T19:08:57.375Z,17.65
2023-03-02T19:11:24.479Z,15.30
2023-03-02T19:13:51.514Z,16.90
2023-03-02T19:16:18.806Z,20.05
2023-03-02T19:18:46.034Z,19.95
2023-03-02T19:21:13.179Z,17.88
2023-03-02T19:23:41.128Z,18.23
2023-03-02T19:26:08.596Z,16.73
2023-03-02T19:28:38.381Z,16.13
2023-03-02T19:31:08.765Z,16.95
2023-03-02T19:33:36.333Z,19.15
2023-03-02T19:36:03.771Z,15.93
2023-03-02T19:38:31.175Z,16.17
2023-03-02T19:40:59.185Z,18.33
2023-03-02T19:43:27.046Z,22.13
2023-03-02T19:45:54.456Z,17.60
2023-03-02T19:48:21.587Z,16.58
2023-03-02T19:50:48.717Z,18.13
2023-03-02T19:53:17.862Z,15.93
2023-03-02T19:55:45.453Z,15.80
2023-03-02T19:58:17.289Z,15.75
2023-03-02T20:00:45.109Z,22.45
2023-03-02T20:03:12.358Z,18.15
2023-03-02T20:05:39.937Z,15.85
2023-03-02T20:08:07.508Z,14.00
2023-03-02T20:10:42.384Z,14.63
2023-03-02T20:13:09.626Z,14.88
2023-03-02T20:15:38.670Z,17.75
2023-03-02T20:18:07.319Z,15.82
2023-03-02T20:20:35.709Z,16.10
2023-03-02T20:23:04.441Z,16.23
2023-03-02T20:25:31.780Z,14.15
2023-03-02T20:27:59.052Z,30.30
2023-03-02T20:30:31.436Z,21.85
2023-03-02T20:32:59.447Z,19.30
2023-03-02T20:35:27.203Z,18.65
2023-03-02T20:37:56.101Z,19.23
2023-03-02T20:40:23.185Z,27.88
2023-03-02T20:42:50.287Z,21.60
2023-03-02T20:45:17.413Z,19.20
2023-03-02T20:47:45.477Z,16.35
2023-03-02T20:50:15.842Z,18.23
2023-03-02T20:52:42.856Z,15.63
2023-03-02T20:55:11.001Z,16.38
2023-03-02T20:57:38.231Z,18.80
2023-03-02T21:00:07.027Z,16.40
2023-03-02T21:02:34.047Z,16.85
2023-03-02T21:05:01.164Z,17.65
2023-03-02T21:07:28.487Z,17.05
2023-03-02T21:09:55.493Z,15.57
2023-03-02T21:12:22.567Z,16.75
2023-03-02T21:14:49.670Z,18.88
2023-03-02T21:17:16.709Z,17.50
2023-03-02T21:19:43.790Z,14.93
2023-03-02T21:22:10.992Z,16.50
2023-03-02T21:24:42.136Z,14.48
2023-03-02T21:27:09.257Z,16.65
2023-03-02T21:29:37.431Z,14.25
2023-03-02T21:32:06.190Z,13.68
2023-03-02T21:34:33.277Z,16.85
2023-03-02T21:37:00.355Z,14.80
2023-03-02T21:39:27.406Z,14.32
2023-03-02T21:41:55.660Z,16.60
2023-03-02T21:44:22.761Z,16.30
2023-03-02T21:46:50.788Z,14.15
2023-03-02T21:49:19.350Z,15.68
2023-03-02T21:51:48.904Z,14.02
2023-03-02T21:54:17.940Z,17.80
2023-03-02T21:56:45.099Z,16.67
2023-03-02T21:59:12.611Z,13.43
2023-03-02T22:01:39.740Z,14.13
2023-03-02T22:04:07.322Z,15.65
2023-03-02T22:06:35.426Z,15.48
2023-03-02T22:09:02.652Z,16.15
2023-03-02T22:11:31.855Z,16.17
2023-03-02T22:13:59.779Z,18.38
2023-03-02T22:16:33.781Z,16.67
2023-03-02T22:19:01.186Z,18.80
2023-03-02T22:21:36.778Z,41.65
2023-03-02T22:24:09.806Z,25.40
2023-03-02T22:26:39.452Z,21.02
2023-03-02T22:29:14.363Z,21.15
2023-03-02T22:31:49.302Z,23.80
2023-03-02T22:34:20.112Z,26.05
2023-03-02T22:36:48.771Z,17.52
2023-03-02T22:39:17.708Z,15.60
2023-03-02T22:41:44.886Z,17.38
2023-03-02T22:44:15.191Z,17.67
2023-03-02T22:46:42.812Z,18.95
2023-03-02T22:49:13.679Z,21.85
2023-03-02T22:51:40.855Z,35.67
2023-03-02T22:54:15.637Z,32.70
2023-03-02T22:56:44.827Z,28.35
2023-03-02T22:59:18.187Z,23.00
2023-03-02T23:01:45.818Z,20.42
2023-03-02T23:04:18.212Z,22.20
2023-03-02T23:06:55.896Z,17.70
2023-03-02T23:09:22.953Z,20.20
2023-03-02T23:11:50.854Z,23.38
2023-03-02T23:14:19.985Z,25.00
2023-03-02T23:16:48.257Z,23.95
2023-03-02T23:19:15.461Z,24.58
2023-03-02T23:21:45.973Z,26.30
2023-03-02T23:24:13.471Z,32.65
2023-03-02T23:26:40.777Z,28.55
2023-03-02T23:29:08.315Z,30.52
2023-03-02T23:31:35.589Z,27.48
2023-03-02T23:34:02.602Z,30.45
2023-03-02T23:36:30.840Z,27.42
2023-03-02T23:38:58.711Z,26.52
2023-03-02T23:41:26.768Z,27.38
2023-03-02T23:43:53.982Z,30.05
2023-03-02T23:46:21.420Z,30.00
2023-03-02T23:48:48.855Z,24.73
2023-03-02T23:51:16.151Z,24.30
2023-03-02T23:53:43.325Z,20.55
2023-03-02T23:56:11.163Z,22.27
2023-03-02T23:58:38.447Z,38.20
